LSZP weather

Biel-Kappelen Airport
Canton of Berne, Switzerland

Public forecast

Using degrees Celsius for public forecast. Weather courtesy of forecast.io.

Closest aviation weather report (METAR) to Biel-Kappelen Airport

Closest report is Grenchen Airport, 7.6 nm (14.1 km) NE. Retrieved 2020/04/06 20:50 UTC (21 minutes ago):

LSZG 062050Z AUTO VRB01KT CAVOK 08/01 Q1026

Closest aviation forecast (TAF) to Biel-Kappelen Airport

Closest forecast is Payerne Air Base, 21.3 nm (39.5 km) SW. Retrieved 2020/04/06 17:00 UTC (4 hours ago):

TAF LSMP 061625Z 0617/0723 VRB03KT CAVOK